createdAt,value
2023-11-25T00:00:11.189Z,4.78
2023-11-25T00:02:42.435Z,4.05
2023-11-25T00:05:11.463Z,4.00
2023-11-25T00:07:40.092Z,4.50
2023-11-25T00:10:09.270Z,4.43
2023-11-25T00:12:38.734Z,5.80
2023-11-25T00:15:09.726Z,4.10
2023-11-25T00:17:38.205Z,6.28
2023-11-25T00:20:08.824Z,5.43
2023-11-25T00:22:37.261Z,4.53
2023-11-25T00:25:06.174Z,4.28
2023-11-25T00:27:34.545Z,3.78
2023-11-25T00:30:03.940Z,4.55
2023-11-25T00:32:38.108Z,6.63
2023-11-25T00:35:07.456Z,3.78
2023-11-25T00:37:36.537Z,5.47
2023-11-25T00:40:05.873Z,4.13
2023-11-25T00:42:35.768Z,5.78
2023-11-25T00:45:04.946Z,6.95
2023-11-25T00:47:36.096Z,3.55
2023-11-25T00:50:06.140Z,4.70
2023-11-25T00:52:37.480Z,3.92
2023-11-25T00:55:06.587Z,4.70
2023-11-25T00:57:35.025Z,4.78
2023-11-25T01:00:05.449Z,4.55
2023-11-25T01:02:35.459Z,4.00
2023-11-25T01:05:05.352Z,3.13
2023-11-25T01:07:33.766Z,3.15
2023-11-25T01:10:02.262Z,3.05
2023-11-25T01:12:31.766Z,3.08
2023-11-25T01:15:00.202Z,2.60
2023-11-25T01:17:30.980Z,2.95
2023-11-25T01:20:00.819Z,2.70
2023-11-25T01:22:29.271Z,3.63
2023-11-25T01:24:57.835Z,3.20
2023-11-25T01:27:26.624Z,2.67
2023-11-25T01:29:55.138Z,3.58
2023-11-25T01:32:23.666Z,2.60
2023-11-25T01:34:52.246Z,2.58
2023-11-25T01:37:24.943Z,2.60
2023-11-25T01:39:54.041Z,3.10
2023-11-25T01:42:22.657Z,2.20
2023-11-25T01:44:51.050Z,2.88
2023-11-25T01:47:19.562Z,2.60
2023-11-25T01:49:48.065Z,2.78
2023-11-25T01:52:16.877Z,2.55
2023-11-25T01:54:46.704Z,2.17
2023-11-25T01:57:15.448Z,2.25
2023-11-25T01:59:44.000Z,2.50
2023-11-25T02:02:14.102Z,2.67
2023-11-25T02:04:43.382Z,3.00
2023-11-25T02:07:12.914Z,2.20
2023-11-25T02:09:41.345Z,2.15
2023-11-25T02:12:12.157Z,2.45
2023-11-25T02:14:40.799Z,2.42
2023-11-25T02:17:09.466Z,2.17
2023-11-25T02:19:38.086Z,2.28
2023-11-25T02:22:11.309Z,2.15
2023-11-25T02:24:41.157Z,2.15
2023-11-25T02:27:10.395Z,2.90
2023-11-25T02:29:38.958Z,3.15
2023-11-25T02:32:08.306Z,1.65
2023-11-25T02:34:36.851Z,2.42
2023-11-25T02:37:07.700Z,5.35
2023-11-25T02:39:38.717Z,1.60
2023-11-25T02:42:10.231Z,1.88
2023-11-25T02:44:38.918Z,1.88
2023-11-25T02:47:07.492Z,1.95
2023-11-25T02:49:36.527Z,1.95
2023-11-25T02:52:05.924Z,2.10
2023-11-25T02:54:34.584Z,1.88
2023-11-25T02:57:03.020Z,1.60
2023-11-25T02:59:33.516Z,2.30
2023-11-25T03:02:10.715Z,1.90
2023-11-25T03:04:42.975Z,3.10
2023-11-25T03:07:11.710Z,1.85
2023-11-25T03:09:43.368Z,1.73
2023-11-25T03:12:14.964Z,2.63
2023-11-25T03:14:44.845Z,2.47
2023-11-25T03:17:13.376Z,2.00
2023-11-25T03:19:41.803Z,1.88
2023-11-25T03:22:10.217Z,3.40
2023-11-25T03:24:38.630Z,2.20
2023-11-25T03:27:07.284Z,2.53
2023-11-25T03:29:35.932Z,2.10
2023-11-25T03:32:06.905Z,2.00
2023-11-25T03:34:35.940Z,1.85
2023-11-25T03:37:04.753Z,1.58
2023-11-25T03:39:32.255Z,2.45
2023-11-25T03:42:03.057Z,2.25
2023-11-25T03:44:31.609Z,2.63
2023-11-25T03:47:00.212Z,2.22
2023-11-25T03:49:30.305Z,2.47
2023-11-25T03:51:59.014Z,2.40
2023-11-25T03:54:27.459Z,1.70
2023-11-25T03:56:55.861Z,1.77
2023-11-25T03:59:24.398Z,1.88
2023-11-25T04:01:52.969Z,2.10
2023-11-25T04:04:21.573Z,2.03
2023-11-25T04:06:51.417Z,2.08
2023-11-25T04:09:19.826Z,2.22
2023-11-25T04:11:48.272Z,2.33
2023-11-25T04:14:17.368Z,2.30
2023-11-25T04:16:46.048Z,2.53
2023-11-25T04:19:14.941Z,2.17
2023-11-25T04:21:46.989Z,2.55
2023-11-25T04:24:16.820Z,3.75
2023-11-25T04:26:45.256Z,3.42
2023-11-25T04:29:14.686Z,3.42
2023-11-25T04:31:43.120Z,3.50
2023-11-25T04:34:11.580Z,3.95
2023-11-25T04:36:40.754Z,4.38
2023-11-25T04:39:09.521Z,3.45
2023-11-25T04:41:43.271Z,4.68
2023-11-25T04:44:12.299Z,4.28
2023-11-25T04:46:41.523Z,4.65
2023-11-25T04:49:10.416Z,4.30
2023-11-25T04:51:38.810Z,5.13
2023-11-25T04:54:06.391Z,4.55
2023-11-25T04:56:35.120Z,5.63
2023-11-25T04:59:07.703Z,6.07
2023-11-25T05:01:36.244Z,6.45
2023-11-25T05:04:06.209Z,7.25
2023-11-25T05:06:35.027Z,7.53
2023-11-25T05:09:06.036Z,6.10
2023-11-25T05:11:34.434Z,6.40
2023-11-25T05:14:03.455Z,5.70
2023-11-25T05:16:33.300Z,6.35
2023-11-25T05:19:01.795Z,5.57
2023-11-25T05:21:30.263Z,5.25
2023-11-25T05:23:58.820Z,4.93
2023-11-25T05:26:27.969Z,4.15
2023-11-25T05:28:56.355Z,4.90
2023-11-25T05:31:25.191Z,5.00
2023-11-25T05:33:54.984Z,4.20
2023-11-25T05:36:24.862Z,4.88
2023-11-25T05:38:56.033Z,5.03
2023-11-25T05:41:24.449Z,3.88
2023-11-25T05:43:52.889Z,3.65
2023-11-25T05:46:24.673Z,4.22
2023-11-25T05:48:55.291Z,3.70
2023-11-25T05:51:24.098Z,3.35
2023-11-25T05:53:52.428Z,3.80
2023-11-25T05:56:22.789Z,3.88
2023-11-25T05:58:52.285Z,4.40
2023-11-25T06:01:20.813Z,3.58
2023-11-25T06:03:51.900Z,4.03
2023-11-25T06:06:22.341Z,3.67
2023-11-25T06:08:50.973Z,3.53
2023-11-25T06:11:22.406Z,3.92
2023-11-25T06:13:50.882Z,3.13
2023-11-25T06:16:19.306Z,2.88
2023-11-25T06:18:47.745Z,2.97
2023-11-25T06:21:16.325Z,3.15
2023-11-25T06:23:46.098Z,4.07
2023-11-25T06:26:14.835Z,3.17
2023-11-25T06:28:43.595Z,2.80
2023-11-25T06:31:12.037Z,3.80
2023-11-25T06:33:40.994Z,3.20
2023-11-25T06:36:10.101Z,3.13
2023-11-25T06:38:38.936Z,3.35
2023-11-25T06:41:09.372Z,3.38
2023-11-25T06:43:39.531Z,3.13
2023-11-25T06:46:08.133Z,3.30
2023-11-25T06:48:36.623Z,3.33
2023-11-25T06:51:05.385Z,3.33
2023-11-25T06:53:34.494Z,3.50
2023-11-25T06:56:03.026Z,4.22
2023-11-25T06:58:32.837Z,3.70
2023-11-25T07:01:05.455Z,3.67
2023-11-25T07:03:35.253Z,4.30
2023-11-25T07:06:05.976Z,4.00
2023-11-25T07:08:34.599Z,3.70
2023-11-25T07:11:06.280Z,3.53
2023-11-25T07:13:36.129Z,3.47
2023-11-25T07:16:05.811Z,4.47
2023-11-25T07:18:37.769Z,4.57
2023-11-25T07:21:08.176Z,4.18
2023-11-25T07:23:37.281Z,4.03
2023-11-25T07:26:06.616Z,4.25
2023-11-25T07:28:36.668Z,5.07
2023-11-25T07:31:06.155Z,4.35
2023-11-25T07:33:34.555Z,4.43
2023-11-25T07:36:02.955Z,4.20
2023-11-25T07:38:31.520Z,3.60
2023-11-25T07:41:01.183Z,3.50
2023-11-25T07:43:30.011Z,3.65
2023-11-25T07:46:00.121Z,3.80
2023-11-25T07:48:28.509Z,3.92
2023-11-25T07:50:56.942Z,4.38
2023-11-25T07:53:25.370Z,3.58
2023-11-25T07:55:55.004Z,4.28
2023-11-25T07:58:24.246Z,3.65
2023-11-25T08:00:52.754Z,4.30
2023-11-25T08:03:22.746Z,3.65
2023-11-25T08:05:51.202Z,3.72
2023-11-25T08:08:19.601Z,4.88
2023-11-25T08:10:48.050Z,3.92
2023-11-25T08:13:20.812Z,4.18
2023-11-25T08:18:19.341Z,4.35
2023-11-25T08:20:52.196Z,3.38
2023-11-25T08:23:20.927Z,4.03
2023-11-25T08:25:49.346Z,3.58
2023-11-25T08:28:17.869Z,3.42
2023-11-25T08:30:46.302Z,3.63
2023-11-25T08:33:15.134Z,3.35
2023-11-25T08:35:43.944Z,3.67
2023-11-25T08:38:15.307Z,4.43
2023-11-25T08:40:44.097Z,4.78
2023-11-25T08:43:14.952Z,4.22
2023-11-25T08:45:47.134Z,4.40
2023-11-25T08:48:15.690Z,5.18
2023-11-25T08:50:44.245Z,5.40
2023-11-25T08:53:15.280Z,5.65
2023-11-25T08:55:43.930Z,5.28
2023-11-25T08:58:12.421Z,6.20
2023-11-25T09:00:41.373Z,4.53
2023-11-25T09:03:10.796Z,3.33
2023-11-25T09:05:41.787Z,3.45
2023-11-25T09:08:10.579Z,3.65
2023-11-25T09:10:40.519Z,3.70
2023-11-25T09:13:08.968Z,8.07
2023-11-25T09:15:41.570Z,3.33
2023-11-25T09:18:11.587Z,4.10
2023-11-25T09:20:40.134Z,3.58
2023-11-25T09:23:08.632Z,4.85
2023-11-25T09:25:37.122Z,4.60
2023-11-25T09:28:09.356Z,4.10
2023-11-25T09:30:37.852Z,3.75
2023-11-25T09:33:06.290Z,3.63
2023-11-25T09:35:34.716Z,4.47
2023-11-25T09:38:03.401Z,4.00
2023-11-25T09:40:32.009Z,3.53
2023-11-25T09:43:00.920Z,4.18
2023-11-25T09:45:31.146Z,4.80
2023-11-25T09:47:59.723Z,4.32
2023-11-25T09:50:30.152Z,4.03
2023-11-25T09:53:01.742Z,5.45
2023-11-25T09:55:32.561Z,4.10
2023-11-25T09:58:02.278Z,4.60
2023-11-25T10:00:32.347Z,5.05
2023-11-25T10:03:02.780Z,4.40
2023-11-25T10:05:33.648Z,4.38
2023-11-25T10:08:05.597Z,3.33
2023-11-25T10:10:34.177Z,5.57
2023-11-25T10:13:04.570Z,7.25
2023-11-25T10:15:34.562Z,6.90
2023-11-25T10:18:03.029Z,6.30
2023-11-25T10:20:31.988Z,5.20
2023-11-25T10:23:00.624Z,7.07
2023-11-25T10:25:30.161Z,6.38
2023-11-25T10:27:58.768Z,7.72
2023-11-25T10:30:27.230Z,6.03
2023-11-25T10:32:58.626Z,6.22
2023-11-25T10:35:27.082Z,4.50
2023-11-25T10:37:56.163Z,5.10
2023-11-25T10:40:26.426Z,6.10
2023-11-25T10:42:55.909Z,4.45
2023-11-25T10:45:28.501Z,5.20
2023-11-25T10:47:58.613Z,5.22
2023-11-25T10:50:27.642Z,6.93
2023-11-25T10:52:58.897Z,9.65
2023-11-25T10:55:28.207Z,8.85
2023-11-25T10:58:00.264Z,5.50
2023-11-25T11:00:30.048Z,5.60
2023-11-25T11:03:02.875Z,6.70
2023-11-25T11:05:34.709Z,8.82
2023-11-25T11:08:03.784Z,6.28
2023-11-25T11:10:35.053Z,6.18
2023-11-25T11:13:07.433Z,5.82
2023-11-25T11:15:38.208Z,7.25
2023-11-25T11:18:14.499Z,7.20
2023-11-25T11:20:44.639Z,7.45
2023-11-25T11:23:13.182Z,7.40
2023-11-25T11:25:49.400Z,7.10
2023-11-25T11:28:23.761Z,8.10
2023-11-25T11:31:07.418Z,8.02
2023-11-25T11:33:37.466Z,6.97
2023-11-25T11:36:07.550Z,5.90
2023-11-25T11:38:35.977Z,6.32
2023-11-25T11:41:25.514Z,6.40
2023-11-25T11:44:03.339Z,6.78
2023-11-25T11:46:32.732Z,6.85
2023-11-25T11:49:02.631Z,7.15
2023-11-25T11:51:31.358Z,7.13
2023-11-25T11:54:17.613Z,7.80
2023-11-25T11:57:02.863Z,7.70
2023-11-25T11:59:58.913Z,8.13
2023-11-25T12:02:28.385Z,9.95
2023-11-25T12:04:58.379Z,7.82
2023-11-25T12:07:27.526Z,11.75
2023-11-25T12:09:56.794Z,8.05
2023-11-25T12:12:25.420Z,9.65
2023-11-25T12:14:55.279Z,13.27
2023-11-25T12:17:25.225Z,15.60
2023-11-25T12:19:54.815Z,13.02
2023-11-25T12:22:25.148Z,9.57
2023-11-25T12:24:53.956Z,5.65
2023-11-25T12:27:24.613Z,5.00
2023-11-25T12:29:53.051Z,4.50
2023-11-25T12:32:21.557Z,5.25
2023-11-25T12:34:50.102Z,4.57
2023-11-25T12:37:18.665Z,4.38
2023-11-25T12:39:48.401Z,4.70
2023-11-25T12:42:16.864Z,5.35
2023-11-25T12:44:51.371Z,5.25
2023-11-25T12:47:20.302Z,5.07
2023-11-25T12:49:50.865Z,5.00
2023-11-25T12:52:24.367Z,4.35
2023-11-25T12:54:54.498Z,4.47
2023-11-25T12:57:30.278Z,5.43
2023-11-25T13:00:01.255Z,5.38
2023-11-25T13:02:30.317Z,5.05
2023-11-25T13:04:58.989Z,4.88
2023-11-25T13:07:31.519Z,6.45
2023-11-25T13:10:01.810Z,6.40
2023-11-25T13:12:30.656Z,6.15
2023-11-25T13:15:01.261Z,6.45
2023-11-25T13:17:30.257Z,5.75
2023-11-25T13:19:59.235Z,7.25
2023-11-25T13:22:27.840Z,6.03
2023-11-25T13:24:56.679Z,7.30
2023-11-25T13:27:26.488Z,5.57
2023-11-25T13:29:57.370Z,5.93
2023-11-25T13:32:26.422Z,7.68
2023-11-25T13:34:55.559Z,7.03
2023-11-25T13:37:23.960Z,7.13
2023-11-25T13:39:52.390Z,6.97
2023-11-25T13:42:22.896Z,6.32
2023-11-25T13:44:52.782Z,6.13
2023-11-25T13:47:21.315Z,6.68
2023-11-25T13:49:50.199Z,5.97
2023-11-25T13:52:18.574Z,6.03
2023-11-25T13:54:46.984Z,7.05
2023-11-25T13:57:15.454Z,5.97
2023-11-25T13:59:44.030Z,7.40
2023-11-25T14:02:14.093Z,5.85
2023-11-25T14:04:43.600Z,6.15
2023-11-25T14:07:12.174Z,6.90
2023-11-25T14:09:40.911Z,7.05
2023-11-25T14:12:09.946Z,6.15
2023-11-25T14:14:38.333Z,5.40
2023-11-25T14:17:11.536Z,5.55
2023-11-25T14:19:41.368Z,6.60
2023-11-25T14:22:10.568Z,6.53
2023-11-25T14:24:39.126Z,7.80
2023-11-25T14:27:07.582Z,8.05
2023-11-25T14:29:35.988Z,9.25
2023-11-25T14:32:04.377Z,9.38
2023-11-25T14:34:32.847Z,8.32
2023-11-25T14:37:03.055Z,9.75
2023-11-25T14:39:43.951Z,10.07
2023-11-25T14:42:16.095Z,10.20
2023-11-25T14:44:45.701Z,10.20
2023-11-25T14:47:14.311Z,10.43
2023-11-25T14:49:42.768Z,10.50
2023-11-25T14:52:13.055Z,11.32
2023-11-25T14:54:42.257Z,12.13
2023-11-25T14:57:11.621Z,13.05
2023-11-25T14:59:40.758Z,12.40
2023-11-25T15:02:09.382Z,13.05
2023-11-25T15:04:39.033Z,10.52
2023-11-25T15:07:07.594Z,11.07
2023-11-25T15:09:37.317Z,10.95
2023-11-25T15:12:06.000Z,11.52
2023-11-25T15:14:35.014Z,11.68
2023-11-25T15:17:07.384Z,11.25
2023-11-25T15:19:40.977Z,10.85
2023-11-25T15:22:11.215Z,11.65
2023-11-25T15:24:41.135Z,10.77
2023-11-25T15:27:09.603Z,10.18
2023-11-25T15:29:38.025Z,10.70
2023-11-25T15:32:06.783Z,11.57
2023-11-25T15:34:35.188Z,10.65
2023-11-25T15:37:03.624Z,11.00
2023-11-25T15:39:32.171Z,14.57
2023-11-25T15:42:01.965Z,13.68
2023-11-25T15:44:30.380Z,10.07
2023-11-25T15:46:59.013Z,12.55
2023-11-25T15:49:27.458Z,11.63
2023-11-25T15:51:55.942Z,13.77
2023-11-25T15:54:24.338Z,13.20
2023-11-25T15:56:52.684Z,11.45
2023-11-25T15:59:25.167Z,10.52
2023-11-25T16:01:53.722Z,10.52
2023-11-25T16:04:22.268Z,8.80
2023-11-25T16:06:53.454Z,10.05
2023-11-25T16:09:23.329Z,11.48
2023-11-25T16:11:51.811Z,8.85
2023-11-25T16:14:21.865Z,12.48
2023-11-25T16:16:50.554Z,11.95
2023-11-25T16:19:19.017Z,11.13
2023-11-25T16:21:48.376Z,10.95
2023-11-25T16:24:17.042Z,11.45
2023-11-25T16:26:45.507Z,10.32
2023-11-25T16:29:14.084Z,9.02
2023-11-25T16:31:44.109Z,11.63
2023-11-25T16:34:13.663Z,10.43
2023-11-25T16:36:42.396Z,10.23
2023-11-25T16:39:11.625Z,9.40
2023-11-25T16:41:40.134Z,9.85
2023-11-25T16:44:09.394Z,8.68
2023-11-25T16:46:38.337Z,10.70
2023-11-25T16:49:09.985Z,9.40
2023-11-25T16:51:42.427Z,10.40
2023-11-25T16:54:11.091Z,12.95
2023-11-25T16:56:39.720Z,11.23
2023-11-25T16:59:08.553Z,11.02
2023-11-25T17:01:37.504Z,10.05
2023-11-25T17:04:07.630Z,10.68
2023-11-25T17:06:37.994Z,9.32
2023-11-25T17:09:06.671Z,10.70
2023-11-25T17:11:36.438Z,10.63
2023-11-25T17:14:05.313Z,11.35
2023-11-25T17:16:33.918Z,10.70
2023-11-25T17:19:02.546Z,10.70
2023-11-25T17:21:31.100Z,9.35
2023-11-25T17:24:03.367Z,9.25
2023-11-25T17:26:31.982Z,9.45
2023-11-25T17:29:00.474Z,11.10
2023-11-25T17:31:29.217Z,10.40
2023-11-25T17:33:57.691Z,10.23
2023-11-25T17:36:26.210Z,11.70
2023-11-25T17:38:54.845Z,10.68
2023-11-25T17:41:24.626Z,12.23
2023-11-25T17:43:54.867Z,10.15
2023-11-25T17:46:24.196Z,10.88
2023-11-25T17:48:54.456Z,11.15
2023-11-25T17:51:23.653Z,9.95
2023-11-25T17:53:52.168Z,8.95
2023-11-25T17:56:20.723Z,9.10
2023-11-25T17:58:50.721Z,11.05
2023-11-25T18:01:19.240Z,11.18
2023-11-25T18:03:47.964Z,9.70
2023-11-25T18:06:16.528Z,14.00
2023-11-25T18:08:45.351Z,9.00
2023-11-25T18:11:13.934Z,10.40
2023-11-25T18:13:42.787Z,10.15
2023-11-25T18:16:12.896Z,10.10
2023-11-25T18:18:41.791Z,10.77
2023-11-25T18:21:11.972Z,9.43
2023-11-25T18:23:40.838Z,7.80
2023-11-25T18:26:11.488Z,8.32
2023-11-25T18:28:42.911Z,6.95
2023-11-25T18:31:17.856Z,5.97
2023-11-25T18:33:46.651Z,7.63
2023-11-25T18:36:15.247Z,7.18
2023-11-25T18:38:43.771Z,6.47
2023-11-25T18:41:13.641Z,7.05
2023-11-25T18:43:42.326Z,6.05
2023-11-25T18:46:12.367Z,6.88
2023-11-25T18:48:42.769Z,5.90
2023-11-25T18:51:11.636Z,5.10
2023-11-25T18:53:40.223Z,4.38
2023-11-25T18:56:08.968Z,4.85
2023-11-25T18:58:38.204Z,8.13
2023-11-25T19:01:07.292Z,5.03
2023-11-25T19:03:35.855Z,5.72
2023-11-25T19:06:06.196Z,4.00
2023-11-25T19:08:34.823Z,4.40
2023-11-25T19:11:03.383Z,3.38
2023-11-25T19:13:31.781Z,3.50
2023-11-25T19:16:00.248Z,4.55
2023-11-25T19:18:28.904Z,2.60
2023-11-25T19:20:57.315Z,3.33
2023-11-25T19:23:27.115Z,3.47
2023-11-25T19:25:55.696Z,3.08
2023-11-25T19:28:25.582Z,2.95
2023-11-25T19:30:54.257Z,2.10
2023-11-25T19:33:22.868Z,3.45
2023-11-25T19:35:51.381Z,2.25
2023-11-25T19:38:20.131Z,3.08
2023-11-25T19:40:49.958Z,2.85
2023-11-25T19:43:18.638Z,4.57
2023-11-25T19:45:47.102Z,3.40
2023-11-25T19:48:15.615Z,3.65
2023-11-25T19:50:45.345Z,3.83
2023-11-25T19:53:14.205Z,3.63
2023-11-25T19:55:42.762Z,3.85
2023-11-25T19:58:12.640Z,3.78
2023-11-25T20:00:46.685Z,3.83
2023-11-25T20:03:22.284Z,4.15
2023-11-25T20:05:50.842Z,4.35
2023-11-25T20:08:21.794Z,4.13
2023-11-25T20:10:50.366Z,4.60
2023-11-25T20:13:20.173Z,3.63
2023-11-25T20:15:48.614Z,5.47
2023-11-25T20:18:18.264Z,4.60
2023-11-25T20:20:47.050Z,4.38
2023-11-25T20:23:16.444Z,4.93
2023-11-25T20:25:45.069Z,4.07
2023-11-25T20:28:13.547Z,3.67
2023-11-25T20:30:44.197Z,4.30
2023-11-25T20:33:13.037Z,4.13
2023-11-25T20:35:41.466Z,3.65
2023-11-25T20:38:10.044Z,3.10
2023-11-25T20:40:38.494Z,3.55
2023-11-25T20:43:07.070Z,3.30
2023-11-25T20:45:38.357Z,2.97
2023-11-25T20:48:09.515Z,2.97
2023-11-25T20:50:38.376Z,3.25
2023-11-25T20:53:09.212Z,3.67
2023-11-25T20:55:37.666Z,2.90
2023-11-25T20:58:07.111Z,3.85
2023-11-25T21:00:35.922Z,4.00
2023-11-25T21:03:04.718Z,4.47
2023-11-25T21:05:35.719Z,4.85
2023-11-25T21:08:04.678Z,4.35
2023-11-25T21:10:33.212Z,3.33
2023-11-25T21:13:01.731Z,3.50
2023-11-25T21:15:30.130Z,3.85
2023-11-25T21:17:59.172Z,4.32
2023-11-25T21:20:28.437Z,4.18
2023-11-25T21:22:58.257Z,3.58
2023-11-25T21:25:26.701Z,3.90
2023-11-25T21:27:57.558Z,3.20
2023-11-25T21:30:27.026Z,3.65
2023-11-25T21:32:57.681Z,4.70
2023-11-25T21:35:26.213Z,14.73
2023-11-25T21:37:54.870Z,4.43
2023-11-25T21:40:25.597Z,7.03
2023-11-25T21:42:54.284Z,6.18
2023-11-25T21:45:24.111Z,9.75
2023-11-25T21:47:52.819Z,11.05
2023-11-25T21:50:21.355Z,4.40
2023-11-25T21:52:51.016Z,6.63
2023-11-25T21:55:19.536Z,3.30
2023-11-25T21:57:50.138Z,7.13
2023-11-25T22:00:19.206Z,8.93
2023-11-25T22:02:47.845Z,6.00
2023-11-25T22:05:17.042Z,8.05
2023-11-25T22:07:45.897Z,3.20
2023-11-25T22:10:21.862Z,5.88
2023-11-25T22:12:58.119Z,4.15
2023-11-25T22:15:27.066Z,6.28
2023-11-25T22:17:55.898Z,6.55
2023-11-25T22:20:26.044Z,5.78
2023-11-25T22:22:56.206Z,4.93
2023-11-25T22:25:35.382Z,4.32
2023-11-25T22:28:08.959Z,3.95
2023-11-25T22:30:37.461Z,3.67
2023-11-25T22:33:07.245Z,3.38
2023-11-25T22:35:47.451Z,4.15
2023-11-25T22:38:19.430Z,6.30
2023-11-25T22:40:48.956Z,4.45
2023-11-25T22:43:18.909Z,6.20
2023-11-25T22:45:47.544Z,6.32
2023-11-25T22:48:16.165Z,4.07
2023-11-25T22:50:44.790Z,4.40
2023-11-25T22:53:13.520Z,2.42
2023-11-25T22:55:42.210Z,3.10
2023-11-25T22:58:10.791Z,3.10
2023-11-25T23:00:50.449Z,2.55
2023-11-25T23:03:20.668Z,2.80
2023-11-25T23:05:49.364Z,4.57
2023-11-25T23:08:17.905Z,3.85
2023-11-25T23:10:46.459Z,2.95
2023-11-25T23:13:14.993Z,3.28
2023-11-25T23:15:44.945Z,2.42
2023-11-25T23:18:13.871Z,3.28
2023-11-25T23:20:42.399Z,3.42
2023-11-25T23:23:10.818Z,3.40
2023-11-25T23:25:39.246Z,2.80
2023-11-25T23:28:07.705Z,4.40
2023-11-25T23:30:36.157Z,2.85
2023-11-25T23:33:06.134Z,2.42
2023-11-25T23:35:34.643Z,2.10
2023-11-25T23:38:03.196Z,2.88
2023-11-25T23:40:31.835Z,2.83
2023-11-25T23:43:00.239Z,2.65
2023-11-25T23:45:28.605Z,2.58
2023-11-25T23:47:57.038Z,2.55
2023-11-25T23:50:26.841Z,2.40
2023-11-25T23:52:55.426Z,2.42
2023-11-25T23:55:24.245Z,2.80
2023-11-25T23:57:52.610Z,1.80
